Time;durP1;ratioP1;P1;durP2;ratioP2;P2;SDS_P1;SDS_P2;PMS_P1;PMS_P2;Temp;Humidity;BMP_temperature;BMP_pressure;BME280_temperature;BME280_humidity;BME280_pressure;Samples;Min_cycle;Max_cycle;Signal;HPM_P1;HPM_P2
2022/02/24 00:01:59;;;;;;;1999.90;999.90;;;9.30;99.90;;;;;;5053738;28;20174;-73
2022/02/24 00:04:24;;;;;;;1999.90;999.90;;;9.30;99.90;;;;;;5053311;28;20411;-73
2022/02/24 00:06:50;;;;;;;1999.90;999.90;;;9.40;99.90;;;;;;5053489;28;20222;-73
2022/02/24 00:09:16;;;;;;;1999.90;999.90;;;9.40;99.90;;;;;;5053223;28;20168;-73
2022/02/24 00:11:41;;;;;;;1999.90;999.90;;;9.30;99.90;;;;;;5051792;28;20178;-73
2022/02/24 00:14:07;;;;;;;1999.90;999.90;;;9.30;99.90;;;;;;5052842;28;20196;-73
2022/02/24 00:16:33;;;;;;;1999.90;999.90;;;9.30;99.90;;;;;;5052915;28;20661;-73
2022/02/24 00:18:58;;;;;;;1999.90;999.90;;;9.30;99.90;;;;;;5053173;28;20167;-73
2022/02/24 00:21:24;;;;;;;1999.90;999.90;;;9.40;99.90;;;;;;5053027;28;20193;-73
2022/02/24 00:23:50;;;;;;;1999.90;999.90;;;9.40;99.90;;;;;;5053343;28;20162;-73
2022/02/24 00:26:15;;;;;;;1999.90;999.90;;;9.40;99.90;;;;;;5052957;28;20208;-73
2022/02/24 00:28:41;;;;;;;1999.90;999.90;;;9.40;99.90;;;;;;5053089;28;20188;-73
2022/02/24 00:31:10;;;;;;;1999.90;999.90;;;9.40;99.90;;;;;;5053097;28;20191;-73
2022/02/24 00:33:38;;;;;;;1999.90;999.90;;;9.50;99.90;;;;;;5052949;28;20168;-73
2022/02/24 00:36:04;;;;;;;1999.90;999.90;;;9.40;99.90;;;;;;5052213;28;20412;-73
2022/02/24 00:38:30;;;;;;;1999.90;999.90;;;9.30;99.90;;;;;;5052861;28;20415;-73
2022/02/24 00:40:55;;;;;;;1999.90;999.90;;;9.30;99.90;;;;;;5052520;28;20447;-73
2022/02/24 00:43:21;;;;;;;1999.90;999.90;;;9.20;99.90;;;;;;5052522;28;20165;-73
2022/02/24 00:45:46;;;;;;;1999.90;999.90;;;9.20;99.90;;;;;;5052395;28;20244;-73
2022/02/24 00:48:12;;;;;;;1999.90;999.90;;;9.00;99.90;;;;;;5052746;28;20672;-73
2022/02/24 00:50:38;;;;;;;1999.90;999.90;;;8.90;99.90;;;;;;5052802;28;20260;-73
2022/02/24 00:53:04;;;;;;;1999.90;999.90;;;8.90;99.90;;;;;;5052928;28;20233;-73
2022/02/24 00:55:30;;;;;;;1999.90;999.90;;;8.90;99.90;;;;;;5052438;28;20494;-73
2022/02/24 00:57:56;;;;;;;1999.90;999.90;;;9.00;99.90;;;;;;5052383;28;20498;-73
2022/02/24 01:00:22;;;;;;;1999.90;999.90;;;9.10;99.90;;;;;;5052086;28;20272;-73
2022/02/24 01:02:47;;;;;;;1999.90;999.90;;;9.10;99.90;;;;;;5052422;28;20163;-73
2022/02/24 01:05:13;;;;;;;1999.90;999.90;;;9.20;99.90;;;;;;5052013;28;20441;-73
2022/02/24 01:07:39;;;;;;;1999.90;999.90;;;9.20;99.90;;;;;;5052598;28;20265;-73
2022/02/24 01:10:06;;;;;;;1999.90;999.90;;;9.20;99.90;;;;;;5052148;28;20219;-73
2022/02/24 01:12:32;;;;;;;1999.90;999.90;;;9.20;99.90;;;;;;5052212;28;20621;-73
2022/02/24 01:15:06;;;;;;;1999.90;999.90;;;9.20;99.90;;;;;;5051895;28;20403;-73
2022/02/24 01:17:32;;;;;;;1999.90;999.90;;;9.10;99.90;;;;;;5052153;28;20494;-73
2022/02/24 01:19:58;;;;;;;1999.90;999.90;;;9.10;99.90;;;;;;5052082;28;20808;-73
2022/02/24 01:22:23;;;;;;;1999.90;999.90;;;9.10;99.90;;;;;;5050988;28;20408;-73
2022/02/24 01:24:49;;;;;;;1999.90;999.90;;;9.10;99.90;;;;;;5051662;28;20191;-73
2022/02/24 01:27:15;;;;;;;1999.90;999.90;;;9.10;99.90;;;;;;5051864;28;20190;-73
2022/02/24 01:29:40;;;;;;;1999.90;999.90;;;9.10;99.90;;;;;;5051693;28;20266;-73
2022/02/24 01:32:06;;;;;;;1999.90;999.90;;;9.10;99.90;;;;;;5051759;28;20188;-73
2022/02/24 01:34:32;;;;;;;1999.90;999.90;;;9.00;99.90;;;;;;5051480;28;20176;-73
2022/02/24 01:36:57;;;;;;;1999.90;999.90;;;9.10;99.90;;;;;;5051673;28;20987;-73
2022/02/24 01:39:23;;;;;;;1999.90;999.90;;;9.00;99.90;;;;;;5051416;28;20167;-73
2022/02/24 01:41:48;;;;;;;1999.90;999.90;;;9.00;99.90;;;;;;5051712;28;20581;-73
2022/02/24 01:44:14;;;;;;;1999.90;999.90;;;9.00;99.90;;;;;;5051350;28;20169;-73
2022/02/24 01:46:42;;;;;;;1999.90;999.90;;;9.00;99.90;;;;;;5051597;28;20175;-73
2022/02/24 01:49:09;;;;;;;1999.90;999.90;;;9.10;99.90;;;;;;5051540;28;20453;-73
2022/02/24 01:51:36;;;;;;;1999.90;999.90;;;9.10;99.90;;;;;;5051555;28;20409;-73
2022/02/24 01:54:02;;;;;;;1999.90;999.90;;;9.20;99.90;;;;;;5051151;28;20421;-73
2022/02/24 01:56:27;;;;;;;1999.90;999.90;;;9.10;99.90;;;;;;5051425;28;20400;-73
2022/02/24 01:58:54;;;;;;;1999.90;999.90;;;9.10;99.90;;;;;;5051463;28;20404;-73
2022/02/24 02:01:21;;;;;;;1999.90;999.90;;;9.10;99.90;;;;;;5051435;28;20181;-73
2022/02/24 02:03:51;;;;;;;1999.90;999.90;;;9.00;99.90;;;;;;5051403;28;20404;-73
2022/02/24 02:06:18;;;;;;;1999.90;999.90;;;9.00;99.90;;;;;;5051039;28;20523;-73
2022/02/24 02:08:44;;;;;;;1999.90;999.90;;;9.00;99.90;;;;;;5051274;28;20405;-73
2022/02/24 02:11:10;;;;;;;1999.90;999.90;;;8.90;99.90;;;;;;5051299;28;20425;-73
2022/02/24 02:13:36;;;;;;;1999.90;999.90;;;8.90;99.90;;;;;;5054332;28;20175;-73
2022/02/24 02:16:03;;;;;;;1999.90;999.90;;;8.90;99.90;;;;;;5054659;28;20402;-73
2022/02/24 02:18:29;;;;;;;1999.90;999.90;;;8.80;99.90;;;;;;5054854;28;20483;-73
2022/02/24 02:20:55;;;;;;;1999.90;999.90;;;8.70;99.90;;;;;;5054673;28;20466;-73
2022/02/24 02:23:20;;;;;;;1999.90;999.90;;;8.70;99.90;;;;;;5054868;28;20168;-73
2022/02/24 02:25:47;;;;;;;1999.90;999.90;;;8.70;99.90;;;;;;5054615;28;20451;-73
2022/02/24 02:28:13;;;;;;;1999.90;999.90;;;8.60;99.90;;;;;;5054746;28;20425;-73
2022/02/24 02:30:39;;;;;;;1999.90;999.90;;;8.60;99.90;;;;;;5054581;28;20420;-73
2022/02/24 02:33:04;;;;;;;1999.90;999.90;;;8.70;99.90;;;;;;5054592;28;20400;-73
2022/02/24 02:35:30;;;;;;;1999.90;999.90;;;8.70;99.90;;;;;;5054184;28;20169;-73
2022/02/24 02:37:57;;;;;;;1999.90;999.90;;;8.60;99.90;;;;;;5054619;28;20187;-73
2022/02/24 02:40:23;;;;;;;1999.90;999.90;;;8.50;99.90;;;;;;5054301;28;20208;-73
2022/02/24 02:42:50;;;;;;;1999.90;999.90;;;8.50;99.90;;;;;;5054495;28;20402;-73
2022/02/24 02:45:16;;;;;;;1999.90;999.90;;;8.60;99.90;;;;;;5054080;28;20448;-73
2022/02/24 02:47:43;;;;;;;1999.90;999.90;;;8.60;99.90;;;;;;5054343;28;20457;-73
2022/02/24 02:50:08;;;;;;;1999.90;999.90;;;8.60;99.90;;;;;;5054290;28;20521;-73
2022/02/24 02:52:34;;;;;;;1999.90;999.90;;;8.50;99.90;;;;;;5053086;28;20513;-73
2022/02/24 02:55:08;;;;;;;1999.90;999.90;;;8.60;99.90;;;;;;5053989;28;20169;-73
2022/02/24 02:57:34;;;;;;;1999.90;999.90;;;8.60;99.90;;;;;;5054404;28;20934;-72
2022/02/24 03:00:01;;;;;;;1999.90;999.90;;;8.70;99.90;;;;;;5054118;28;20514;-73
2022/02/24 03:02:26;;;;;;;1999.90;999.90;;;8.80;99.90;;;;;;5054174;28;20399;-73
2022/02/24 03:04:53;;;;;;;1999.90;999.90;;;8.70;99.90;;;;;;5053603;28;20452;-73
2022/02/24 03:07:19;;;;;;;1999.90;999.90;;;8.70;99.90;;;;;;5053991;28;20505;-73
2022/02/24 03:09:45;;;;;;;1999.90;999.90;;;8.80;99.90;;;;;;5054009;28;20426;-73
2022/02/24 03:12:12;;;;;;;1999.90;999.90;;;8.80;99.90;;;;;;5053936;28;20226;-73
2022/02/24 03:14:38;;;;;;;1999.90;999.90;;;8.90;99.90;;;;;;5053769;28;20524;-73
2022/02/24 03:17:07;;;;;;;1999.90;999.90;;;8.90;99.90;;;;;;5053769;28;20451;-73
2022/02/24 03:19:33;;;;;;;1999.90;999.90;;;8.90;99.90;;;;;;5053675;28;20270;-73
2022/02/24 03:21:59;;;;;;;1999.90;999.90;;;8.90;99.90;;;;;;5053732;28;20497;-73
2022/02/24 03:24:24;;;;;;;1999.90;999.90;;;8.90;99.90;;;;;;5053435;28;20184;-73
2022/02/24 03:26:50;;;;;;;1999.90;999.90;;;8.90;99.90;;;;;;5052449;28;20596;-73
2022/02/24 03:29:16;;;;;;;1999.90;999.90;;;9.00;99.90;;;;;;5053735;28;20407;-73
2022/02/24 03:31:43;;;;;;;1999.90;999.90;;;9.10;99.90;;;;;;5053566;28;20181;-73
2022/02/24 03:34:12;;;;;;;1999.90;999.90;;;8.90;99.90;;;;;;5053035;28;20172;-73
2022/02/24 03:36:38;;;;;;;1999.90;999.90;;;8.90;99.90;;;;;;5053548;28;20398;-73
2022/02/24 03:39:05;;;;;;;1999.90;999.90;;;8.90;99.90;;;;;;5052128;28;20427;-73
2022/02/24 03:41:31;;;;;;;1999.90;999.90;;;8.90;99.90;;;;;;5053248;28;20744;-73
2022/02/24 03:43:57;;;;;;;1999.90;999.90;;;8.90;99.90;;;;;;5053238;28;20412;-73
2022/02/24 03:46:22;;;;;;;1999.90;999.90;;;8.90;99.90;;;;;;5052935;28;20874;-73
2022/02/24 03:48:49;;;;;;;1999.90;999.90;;;8.90;99.90;;;;;;5053204;28;20407;-73
2022/02/24 03:51:15;;;;;;;1999.90;999.90;;;8.90;99.90;;;;;;5053048;28;20723;-73
2022/02/24 03:53:40;;;;;;;1999.90;999.90;;;8.90;99.90;;;;;;5053048;28;20482;-73
2022/02/24 03:56:06;;;;;;;1999.90;999.90;;;9.00;99.90;;;;;;5052762;28;20508;-73
2022/02/24 03:58:32;;;;;;;1999.90;999.90;;;9.10;99.90;;;;;;5053063;28;20249;-73
2022/02/24 04:00:57;;;;;;;1999.90;999.90;;;9.00;99.90;;;;;;5052995;28;20611;-73
2022/02/24 04:03:23;;;;;;;1999.90;999.90;;;9.10;99.90;;;;;;5052861;28;20214;-73
2022/02/24 04:05:49;;;;;;;1999.90;999.90;;;8.90;99.90;;;;;;5052597;28;20203;-73
2022/02/24 04:08:15;;;;;;;1999.90;999.90;;;8.90;99.90;;;;;;5052882;28;20165;-73
2022/02/24 04:10:40;;;;;;;1999.90;999.90;;;8.90;99.90;;;;;;5052725;28;20951;-73
2022/02/24 04:13:06;;;;;;;1999.90;999.90;;;8.80;99.90;;;;;;5052708;28;20165;-73
2022/02/24 04:15:32;;;;;;;1999.90;999.90;;;8.70;99.90;;;;;;5052355;28;20164;-73
2022/02/24 04:17:57;;;;;;;1999.90;999.90;;;8.60;99.90;;;;;;5052733;28;20233;-73
2022/02/24 04:20:23;;;;;;;1999.90;999.90;;;8.60;99.90;;;;;;5052556;28;20191;-73
2022/02/24 04:22:49;;;;;;;1999.90;999.90;;;8.50;99.90;;;;;;5052608;28;20559;-73
2022/02/24 04:25:15;;;;;;;1999.90;999.90;;;8.50;99.90;;;;;;5052169;28;20185;-73
2022/02/24 04:27:49;;;;;;;1999.90;999.90;;;8.40;99.90;;;;;;5052498;28;20202;-73
2022/02/24 04:30:16;;;;;;;1999.90;999.90;;;8.50;99.90;;;;;;5052423;28;20770;-73
2022/02/24 04:32:42;;;;;;;1999.90;999.90;;;8.50;99.90;;;;;;5052437;28;21110;-73
2022/02/24 04:35:08;;;;;;;1999.90;999.90;;;8.60;99.90;;;;;;5051658;28;20459;-73
2022/02/24 04:37:34;;;;;;;1999.90;999.90;;;8.70;99.90;;;;;;5052474;28;20414;-73
2022/02/24 04:40:00;;;;;;;1999.90;999.90;;;8.70;99.90;;;;;;5098603;22;20469;-74
2022/02/24 04:42:25;;;;;;;1999.90;999.90;;;8.70;99.90;;;;;;5072234;28;20175;-74
2022/02/24 04:44:51;;;;;;;1999.90;999.90;;;8.80;99.90;;;;;;5071802;28;20223;-74
2022/02/24 04:47:17;;;;;;;1999.90;999.90;;;8.80;99.90;;;;;;5072101;28;20167;-74
2022/02/24 04:49:43;;;;;;;1999.90;999.90;;;8.90;99.90;;;;;;5072025;28;20409;-75
2022/02/24 04:52:08;;;;;;;1999.90;999.90;;;9.00;99.90;;;;;;5072089;28;20175;-75
2022/02/24 04:54:34;;;;;;;1999.90;999.90;;;9.00;99.90;;;;;;5053844;28;20200;-74
2022/02/24 04:57:00;;;;;;;1999.90;999.90;;;9.00;99.90;;;;;;5072066;28;20674;-74
2022/02/24 04:59:25;;;;;;;1999.90;999.90;;;9.00;99.90;;;;;;5071892;28;20164;-74
2022/02/24 05:01:51;;;;;;;1999.90;999.90;;;9.10;99.90;;;;;;5071892;28;20643;-74
2022/02/24 05:04:16;;;;;;;1999.90;999.90;;;9.10;99.90;;;;;;5071642;28;20163;-74
2022/02/24 05:06:43;;;;;;;1999.90;999.90;;;9.20;99.90;;;;;;5071859;28;20202;-75
2022/02/24 05:09:09;;;;;;;1999.90;999.90;;;9.20;99.90;;;;;;5071903;28;20596;-74
2022/02/24 05:11:34;;;;;;;1999.90;999.90;;;9.30;99.90;;;;;;5071799;28;20479;-75
2022/02/24 05:14:00;;;;;;;1999.90;999.90;;;9.30;99.90;;;;;;5071620;28;20163;-75
2022/02/24 05:16:26;;;;;;;1999.90;999.90;;;9.30;99.90;;;;;;5071775;28;20175;-74
2022/02/24 05:18:52;;;;;;;1999.90;999.90;;;9.20;99.90;;;;;;5071846;28;20236;-75
2022/02/24 05:21:17;;;;;;;1999.90;999.90;;;9.30;99.90;;;;;;5071667;28;20430;-74
2022/02/24 05:23:44;;;;;;;1999.90;999.90;;;9.30;99.90;;;;;;5071716;28;20259;-75
2022/02/24 05:26:09;;;;;;;1999.90;999.90;;;9.30;99.90;;;;;;5071379;28;20186;-75
2022/02/24 05:28:35;;;;;;;1999.90;999.90;;;9.40;99.90;;;;;;5071669;28;20408;-75
2022/02/24 05:31:01;;;;;;;1999.90;999.90;;;9.30;99.90;;;;;;5071534;28;20190;-75
2022/02/24 05:33:28;;;;;;;1999.90;999.90;;;9.30;99.90;;;;;;5071681;28;20409;-74
2022/02/24 05:35:54;;;;;;;1999.90;999.90;;;9.30;99.90;;;;;;5071314;28;20172;-74
2022/02/24 05:38:20;;;;;;;1999.90;999.90;;;9.30;99.90;;;;;;5071592;28;20410;-74
2022/02/24 05:40:46;;;;;;;1999.90;999.90;;;9.30;99.90;;;;;;5071438;28;20457;-74
2022/02/24 05:43:11;;;;;;;1999.90;999.90;;;9.40;99.90;;;;;;5072648;28;20412;-74
2022/02/24 05:45:37;;;;;;;1999.90;999.90;;;9.40;99.90;;;;;;5072807;28;20542;-75
2022/02/24 05:48:03;;;;;;;1999.90;999.90;;;9.30;99.90;;;;;;5075436;28;20255;-74
2022/02/24 05:50:29;;;;;;;1999.90;999.90;;;9.30;99.90;;;;;;5076850;28;20179;-75
2022/02/24 05:52:54;;;;;;;1999.90;999.90;;;9.40;99.90;;;;;;5076719;28;20410;-75
2022/02/24 05:55:20;;;;;;;1999.90;999.90;;;9.30;99.90;;;;;;5076583;28;20202;-75
2022/02/24 05:57:45;;;;;;;1999.90;999.90;;;9.30;99.90;;;;;;5077290;28;20171;-75
2022/02/24 06:00:12;;;;;;;1999.90;999.90;;;9.30;99.90;;;;;;5076295;28;20652;-75
2022/02/24 06:02:38;;;;;;;1999.90;999.90;;;9.30;99.90;;;;;;5076417;28;20165;-75
2022/02/24 06:05:05;;;;;;;1999.90;999.90;;;9.20;99.90;;;;;;5076445;28;20445;-75
2022/02/24 06:07:30;;;;;;;1999.90;999.90;;;9.20;99.90;;;;;;5076330;28;20409;-74
2022/02/24 06:09:56;;;;;;;1999.90;999.90;;;9.30;99.90;;;;;;5076520;28;20428;-75
2022/02/24 06:12:21;;;;;;;1999.90;999.90;;;9.30;99.90;;;;;;5076518;28;20167;-75
2022/02/24 06:14:47;;;;;;;1999.90;999.90;;;9.30;99.90;;;;;;5076342;28;20179;-75
2022/02/24 06:17:13;;;;;;;1999.90;999.90;;;9.20;99.90;;;;;;5076126;28;20228;-75
2022/02/24 06:19:39;;;;;;;1999.90;999.90;;;9.20;99.90;;;;;;5074678;28;20169;-75
2022/02/24 06:22:05;;;;;;;1999.90;999.90;;;9.20;99.90;;;;;;5074794;28;20174;-75
2022/02/24 06:24:31;;;;;;;1999.90;999.90;;;9.20;99.90;;;;;;5074335;28;20766;-74
2022/02/24 06:26:56;;;;;;;1999.90;999.90;;;9.20;99.90;;;;;;5074528;28;20182;-74
2022/02/24 06:29:22;;;;;;;1999.90;999.90;;;9.20;99.90;;;;;;5074602;28;20176;-74
2022/02/24 06:31:47;;;;;;;1999.90;999.90;;;9.20;99.90;;;;;;5074505;28;20648;-75
2022/02/24 06:34:13;;;;;;;1999.90;999.90;;;9.30;99.90;;;;;;5074300;28;20208;-74
2022/02/24 06:36:39;;;;;;;1999.90;999.90;;;9.20;99.90;;;;;;5074512;28;20175;-74
2022/02/24 06:39:04;;;;;;;1999.90;999.90;;;9.30;99.90;;;;;;5074465;28;20182;-74
2022/02/24 06:41:30;;;;;;;1999.90;999.90;;;9.30;99.90;;;;;;5074201;28;20204;-74
2022/02/24 06:43:56;;;;;;;1999.90;999.90;;;9.30;99.90;;;;;;5074382;28;20259;-75
2022/02/24 06:46:22;;;;;;;1999.90;999.90;;;9.30;99.90;;;;;;5073993;28;20538;-74
2022/02/24 06:48:48;;;;;;;1999.90;999.90;;;9.30;99.90;;;;;;5074295;28;20410;-75
2022/02/24 06:51:14;;;;;;;1999.90;999.90;;;9.40;99.90;;;;;;5074253;28;20425;-74
2022/02/24 06:53:40;;;;;;;1999.90;999.90;;;9.40;99.90;;;;;;5074135;28;20843;-74
2022/02/24 06:56:06;;;;;;;1999.90;999.90;;;9.40;99.90;;;;;;5073883;28;20256;-74
2022/02/24 06:58:32;;;;;;;1999.90;999.90;;;9.40;99.90;;;;;;5073761;28;20957;-74
2022/02/24 07:00:58;;;;;;;1999.90;999.90;;;9.40;99.90;;;;;;5074030;28;20646;-74
2022/02/24 07:03:24;;;;;;;1999.90;999.90;;;9.40;99.90;;;;;;5073884;28;20447;-74
2022/02/24 07:05:50;;;;;;;1999.90;999.90;;;9.50;99.90;;;;;;5073606;28;20472;-75
2022/02/24 07:08:15;;;;;;;1999.90;999.90;;;9.60;99.90;;;;;;5073888;28;20167;-74
2022/02/24 07:10:41;;;;;;;1999.90;999.90;;;9.60;99.90;;;;;;5073748;28;20845;-74
2022/02/24 07:13:07;;;;;;;1999.90;999.90;;;9.50;99.90;;;;;;5073863;28;20247;-74
2022/02/24 07:15:32;;;;;;;1999.90;999.90;;;9.50;99.90;;;;;;5073537;28;20609;-74
2022/02/24 07:17:58;;;;;;;1999.90;999.90;;;9.50;99.90;;;;;;5073696;28;20187;-74
2022/02/24 07:20:24;;;;;;;1999.90;999.90;;;9.60;99.90;;;;;;5073585;28;20192;-75
2022/02/24 07:22:49;;;;;;;1999.90;999.90;;;9.60;99.90;;;;;;5073713;28;20701;-75
2022/02/24 07:25:15;;;;;;;1999.90;999.90;;;9.50;99.90;;;;;;5073234;28;20199;-74
2022/02/24 07:27:42;;;;;;;1999.90;999.90;;;9.50;99.90;;;;;;5073502;28;20168;-74
2022/02/24 07:30:09;;;;;;;1999.90;999.90;;;9.60;99.90;;;;;;5073541;28;20484;-74
2022/02/24 07:32:35;;;;;;;1999.90;999.90;;;9.60;99.90;;;;;;5073412;28;20890;-74
2022/02/24 07:35:01;;;;;;;1999.90;999.90;;;9.60;99.90;;;;;;5073081;28;20411;-75
2022/02/24 07:37:27;;;;;;;1999.90;999.90;;;9.50;99.90;;;;;;5073270;28;20436;-74
2022/02/24 07:39:53;;;;;;;1999.90;999.90;;;9.60;99.90;;;;;;5072990;28;20956;-74
2022/02/24 07:42:18;;;;;;;1999.90;999.90;;;9.50;99.90;;;;;;5073239;28;20416;-74
2022/02/24 07:44:45;;;;;;;1999.90;999.90;;;9.60;99.90;;;;;;5072827;28;20251;-75
2022/02/24 07:47:11;;;;;;;1999.90;999.90;;;9.60;99.90;;;;;;5073043;28;20533;-74
2022/02/24 07:49:37;;;;;;;1999.90;999.90;;;9.70;99.90;;;;;;5072922;28;20404;-75
2022/02/24 07:52:03;;;;;;;1999.90;999.90;;;9.70;99.90;;;;;;5073053;28;20493;-74
2022/02/24 07:54:29;;;;;;;1999.90;999.90;;;9.70;99.90;;;;;;5072668;28;20225;-74
2022/02/24 07:56:55;;;;;;;1999.90;999.90;;;9.60;99.90;;;;;;5072869;28;20967;-75
2022/02/24 07:59:20;;;;;;;1999.90;999.90;;;9.60;99.90;;;;;;5072936;28;20163;-75
2022/02/24 08:01:46;;;;;;;1999.90;999.90;;;9.60;99.90;;;;;;5072811;28;20539;-74
2022/02/24 08:04:12;;;;;;;1999.90;999.90;;;9.60;99.90;;;;;;5072541;28;20407;-75
2022/02/24 08:06:38;;;;;;;1999.90;999.90;;;9.70;99.90;;;;;;5072909;28;20451;-75
2022/02/24 08:09:07;;;;;;;1999.90;999.90;;;9.60;99.90;;;;;;5072700;28;20164;-76
2022/02/24 08:11:34;;;;;;;1999.90;999.90;;;9.60;99.90;;;;;;5072240;28;20438;-76
2022/02/24 08:13:59;;;;;;;1999.90;999.90;;;9.70;99.90;;;;;;5072671;28;20414;-75
2022/02/24 08:16:25;;;;;;;1999.90;999.90;;;9.70;99.90;;;;;;5072819;28;20795;-75
2022/02/24 08:18:51;;;;;;;1999.90;999.90;;;9.70;99.90;;;;;;5072785;28;20170;-76
2022/02/24 08:21:16;;;;;;;1999.90;999.90;;;9.70;99.90;;;;;;5072803;28;20195;-75
2022/02/24 08:23:42;;;;;;;1999.90;999.90;;;9.70;99.90;;;;;;5072871;28;20528;-76
2022/02/24 08:26:08;;;;;;;1999.90;999.90;;;9.60;99.90;;;;;;5072288;28;20616;-75
2022/02/24 08:28:34;;;;;;;1999.90;999.90;;;9.70;99.90;;;;;;5072505;28;20178;-75
2022/02/24 08:30:59;;;;;;;1999.90;999.90;;;9.60;99.90;;;;;;5072551;28;20508;-75
2022/02/24 08:33:25;;;;;;;1999.90;999.90;;;9.70;99.90;;;;;;5072719;28;20172;-75
2022/02/24 08:35:51;;;;;;;1999.90;999.90;;;9.60;99.90;;;;;;5072233;28;20626;-75
2022/02/24 08:38:18;;;;;;;1999.90;999.90;;;9.60;99.90;;;;;;5072519;28;20182;-75
2022/02/24 08:40:44;;;;;;;1999.90;999.90;;;9.50;99.90;;;;;;5072346;28;20207;-75
2022/02/24 08:43:10;;;;;;;1999.90;999.90;;;9.50;99.90;;;;;;5072597;28;20831;-76
2022/02/24 08:45:36;;;;;;;1999.90;999.90;;;9.50;99.90;;;;;;5072200;28;20236;-76
2022/02/24 08:48:03;;;;;;;1999.90;999.90;;;9.60;99.90;;;;;;5072374;28;20163;-75
2022/02/24 08:50:30;;;;;;;1999.90;999.90;;;9.60;99.90;;;;;;5072218;28;20445;-76
2022/02/24 08:52:56;;;;;;;1999.90;999.90;;;9.50;99.90;;;;;;5072324;28;20463;-76
2022/02/24 08:55:22;;;;;;;1999.90;999.90;;;9.60;99.90;;;;;;5072032;28;20417;-75
2022/02/24 08:57:47;;;;;;;1999.90;999.90;;;9.60;99.90;;;;;;5072228;28;20782;-75
2022/02/24 09:00:14;;;;;;;1999.90;999.90;;;9.60;99.90;;;;;;5072248;28;20200;-75
2022/02/24 09:02:39;;;;;;;1999.90;999.90;;;9.70;99.90;;;;;;5072168;28;20600;-76
2022/02/24 09:05:06;;;;;;;1999.90;999.90;;;9.70;99.90;;;;;;5071928;28;20439;-76
2022/02/24 09:07:32;;;;;;;1999.90;999.90;;;9.80;99.90;;;;;;5072317;28;20180;-75
2022/02/24 09:09:58;;;;;;;1999.90;999.90;;;9.80;99.90;;;;;;5071952;28;20425;-76
2022/02/24 09:12:24;;;;;;;1999.90;999.90;;;9.80;99.90;;;;;;5072102;28;20913;-75
2022/02/24 09:14:49;;;;;;;1999.90;999.90;;;9.70;99.90;;;;;;5071913;28;20195;-75
2022/02/24 09:17:15;;;;;;;1999.90;999.90;;;9.80;99.90;;;;;;5072102;28;20214;-75
2022/02/24 09:19:43;;;;;;;1999.90;999.90;;;9.70;99.90;;;;;;5072070;28;20248;-76
2022/02/24 09:22:08;;;;;;;1999.90;999.90;;;9.70;99.90;;;;;;5074693;28;20192;-75
2022/02/24 09:24:34;;;;;;;1999.90;999.90;;;9.80;99.90;;;;;;5075799;28;20402;-75
2022/02/24 09:27:00;;;;;;;1999.90;999.90;;;9.80;99.90;;;;;;5075933;28;20421;-76
2022/02/24 09:29:25;;;;;;;1999.90;999.90;;;9.80;99.90;;;;;;5071702;28;20170;-75
2022/02/24 09:31:51;;;;;;;1999.90;999.90;;;9.70;99.90;;;;;;5075876;28;20424;-75
2022/02/24 09:34:17;;;;;;;1999.90;999.90;;;9.60;99.90;;;;;;5075567;28;20176;-75
2022/02/24 09:36:43;;;;;;;1999.90;999.90;;;9.50;99.90;;;;;;5072794;28;20184;-76
2022/02/24 09:39:09;;;;;;;1999.90;999.90;;;9.40;99.90;;;;;;5075064;28;20225;-75
2022/02/24 09:41:35;;;;;;;1999.90;999.90;;;9.20;99.90;;;;;;5075190;28;20452;-75
2022/02/24 09:44:01;;;;;;;1999.90;999.90;;;9.20;99.90;;;;;;5074743;28;20276;-74
2022/02/24 09:46:27;;;;;;;1999.90;999.90;;;9.10;99.90;;;;;;5075337;28;20208;-75
2022/02/24 09:48:55;;;;;;;1999.90;999.90;;;9.10;99.90;;;;;;5074886;28;20258;-75
2022/02/24 09:51:30;;;;;;;1999.90;999.90;;;9.20;99.90;;;;;;5073482;22;20496;-75
2022/02/24 09:58:09;;;;;;;1999.90;999.90;;;9.10;99.90;;;;;;4995776;28;20412;-76
2022/02/24 10:04:36;;;;;;;;;;;;;;;;;;;;;
2022/02/24 10:15:19;;;;;;;1999.90;999.90;;;9.00;99.90;;;;;;5075866;28;20398;-76
2022/02/24 10:18:31;;;;;;;1999.90;999.90;;;8.90;99.90;;;;;;5074309;28;20421;-76
2022/02/24 10:29:33;;;;;;;;;;;;;;;;;;;;;
2022/02/24 10:43:09;;;;;;;1999.90;999.90;;;10.10;99.90;;;;;;5146004;22;20524;-73
2022/02/24 10:45:35;;;;;;;1999.90;999.90;;;10.40;99.90;;;;;;5051506;28;20468;-73
2022/02/24 10:48:03;;;;;;;1999.90;999.90;;;10.70;99.90;;;;;;5071943;28;20510;-73
2022/02/24 10:50:48;;;;;;;1999.90;999.90;;;10.90;99.90;;;;;;5073920;28;20674;-73
2022/02/24 10:53:16;;;;;;;1999.90;999.90;;;11.00;99.90;;;;;;5074025;28;20757;-73
2022/02/24 10:55:57;;;;;;;1999.90;999.90;;;11.10;99.90;;;;;;5073988;28;20401;-74
2022/02/24 10:58:24;;;;;;;1999.90;999.90;;;11.10;99.90;;;;;;5073243;28;20404;-73
2022/02/24 11:01:04;;;;;;;1999.90;999.90;;;11.00;99.90;;;;;;5073567;28;20454;-72
2022/02/24 11:03:30;;;;;;;1999.90;999.90;;;10.80;99.90;;;;;;5073653;28;20408;-73
2022/02/24 11:05:58;;;;;;;1999.90;999.90;;;10.70;99.90;;;;;;5072786;28;20463;-73
2022/02/24 11:08:26;;;;;;;1999.90;999.90;;;10.60;99.90;;;;;;5073923;28;20416;-72
2022/02/24 11:10:53;;;;;;;1999.90;999.90;;;10.50;99.90;;;;;;5073076;28;20820;-73
2022/02/24 11:13:18;;;;;;;1999.90;999.90;;;10.40;99.90;;;;;;5073312;28;20487;-72
2022/02/24 11:15:45;;;;;;;1999.90;999.90;;;10.20;99.90;;;;;;5073897;28;20435;-72
2022/02/24 11:18:12;;;;;;;1999.90;999.90;;;10.20;99.90;;;;;;5073850;28;20188;-73
2022/02/24 11:20:37;;;;;;;1999.90;999.90;;;10.10;99.90;;;;;;5072978;28;20431;-72
2022/02/24 11:23:03;;;;;;;1999.90;999.90;;;10.10;99.90;;;;;;5073865;28;20406;-72
2022/02/24 11:25:32;;;;;;;1999.90;999.90;;;10.10;99.90;;;;;;5073499;28;20207;-73
2022/02/24 11:28:00;;;;;;;1999.90;999.90;;;10.10;99.90;;;;;;5073501;28;20508;-72
2022/02/24 11:33:09;;;;;;;1999.90;999.90;;;10.20;99.90;;;;;;5071581;28;20494;-72
2022/02/24 11:35:34;;;;;;;1999.90;999.90;;;10.40;99.90;;;;;;5073029;28;20819;-72
2022/02/24 11:38:06;;;;;;;1999.90;999.90;;;10.40;99.90;;;;;;5073246;28;20411;-72
2022/02/24 11:47:23;;;;;;;1999.90;999.90;;;10.60;99.90;;;;;;4971529;28;20510;-72
2022/02/24 11:49:54;;;;;;;1999.90;999.90;;;10.80;99.90;;;;;;4937718;28;20449;-72
2022/02/24 11:52:28;;;;;;;1999.90;999.90;;;10.80;99.90;;;;;;5039017;28;20442;-73
2022/02/24 11:54:55;;;;;;;1999.90;999.90;;;10.90;99.90;;;;;;5052704;28;20487;-72
2022/02/24 11:57:41;;;;;;;1999.90;999.90;;;11.00;99.90;;;;;;5052578;28;20507;-72
2022/02/24 12:00:16;;;;;;;1999.90;999.90;;;11.20;99.90;;;;;;5052274;28;20508;-72
2022/02/24 12:02:44;;;;;;;1999.90;999.90;;;11.30;99.90;;;;;;5053213;28;20416;-73
2022/02/24 12:05:29;;;;;;;1999.90;999.90;;;11.70;99.90;;;;;;5052032;28;20994;-73
2022/02/24 12:08:09;;;;;;;1999.90;999.90;;;12.70;99.90;;;;;;5052397;28;20427;-73
2022/02/24 12:13:29;;;;;;;1999.90;999.90;;;13.70;99.90;;;;;;5070760;28;20473;-73
2022/02/24 12:16:14;;;;;;;1999.90;999.90;;;14.00;99.90;;;;;;5072381;28;21077;-73
2022/02/24 12:18:41;;;;;;;1999.90;999.90;;;14.00;99.90;;;;;;5071633;28;20420;-72
2022/02/24 12:24:36;;;;;;;1999.90;999.90;;;13.40;99.90;;;;;;5072250;28;20404;-72
2022/02/24 12:27:26;;;;;;;1999.90;999.90;;;13.30;99.90;;;;;;5071705;28;20440;-73
2022/02/24 12:36:37;;;;;;;1999.90;999.90;;;12.70;99.90;;;;;;5043425;28;20398;-72
2022/02/24 12:39:23;;;;;;;1999.90;999.90;;;12.40;99.90;;;;;;5051678;28;20441;-73
2022/02/24 12:42:23;;;;;;;1999.90;999.90;;;12.80;99.90;;;;;;5051365;28;20410;-72
2022/02/24 12:45:25;;;;;;;1999.90;999.90;;;13.50;99.90;;;;;;5051576;28;20844;-73
2022/02/24 12:48:17;;;;;;;1999.90;999.90;;;13.60;99.90;;;;;;5008833;28;20499;-73
2022/02/24 12:51:24;;;;;;;1999.90;999.90;;;13.10;99.90;;;;;;5051061;28;20429;-73
2022/02/24 12:53:58;;;;;;;1999.90;999.90;;;12.90;99.90;;;;;;5004961;28;20414;-72
2022/02/24 12:56:28;;;;;;;1999.90;999.90;;;13.40;99.90;;;;;;5051128;28;20434;-73
2022/02/24 13:02:26;;;;;;;1999.90;999.90;;;13.00;99.90;;;;;;5051235;28;20427;-73
2022/02/24 13:05:24;;;;;;;;;;;;;;;;;;;;;
2022/02/24 13:11:05;;;;;;;1999.90;999.90;;;12.30;99.90;;;;;;5051277;28;20426;-73
2022/02/24 13:13:31;;;;;;;1999.90;999.90;;;12.00;99.90;;;;;;5051565;28;20409;-73
2022/02/24 13:15:59;;;;;;;1999.90;999.90;;;12.10;99.90;;;;;;5051351;28;20901;-72
2022/02/24 13:18:25;;;;;;;1999.90;999.90;;;12.40;99.90;;;;;;5051018;28;20405;-72